Time;durP1;ratioP1;P1;durP2;ratioP2;P2;SDS_P1;SDS_P2;PMS_P1;PMS_P2;Temp;Humidity;BMP_temperature;BMP_pressure;BME280_temperature;BME280_humidity;BME280_pressure;Samples;Min_cycle;Max_cycle;Signal;HPM_P1;HPM_P2
2023/06/16 00:01:16;;;;;;;6.40;3.90;;;;;;;17.79;48.66;100458.94;4930734;29;20055;-69
2023/06/16 00:03:49;;;;;;;5.07;4.03;;;;;;;17.75;48.96;100454.81;4951922;28;20051;-69
2023/06/16 00:06:19;;;;;;;;;;;;;;;17.73;49.56;100451.41;4934954;29;20066;-69
2023/06/16 00:08:48;;;;;;;4.18;3.78;;;;;;;17.69;49.24;100444.56;4947980;28;20013;-71
2023/06/16 00:11:16;;;;;;;7.60;4.00;;;;;;;17.64;49.60;100453.91;4944443;28;20051;-68
2023/06/16 00:13:46;;;;;;;7.32;4.22;;;;;;;17.61;50.10;100446.94;4950036;28;20443;-69
2023/06/16 00:16:13;;;;;;;6.88;4.28;;;;;;;17.56;50.30;100437.53;4936544;29;20051;-69
2023/06/16 00:18:43;;;;;;;6.55;3.90;;;;;;;17.53;50.59;100446.66;4948871;28;20065;-69
2023/06/16 00:21:13;;;;;;;6.72;4.40;;;;;;;17.51;50.99;100445.91;4927463;29;20114;-69
2023/06/16 00:23:41;;;;;;;7.40;4.22;;;;;;;17.45;51.29;100449.06;4950733;28;20131;-69
2023/06/16 00:26:08;;;;;;;6.50;4.10;;;;;;;17.46;51.47;100453.44;4950503;28;20099;-69
2023/06/16 00:28:35;;;;;;;8.45;4.13;;;;;;;17.37;51.73;100443.41;4950381;28;20051;-69
2023/06/16 00:31:07;;;;;;;7.60;4.00;;;;;;;17.34;52.27;100452.50;4944828;28;20138;-68
2023/06/16 00:33:33;;;;;;;5.35;4.20;;;;;;;17.26;52.53;100448.72;4931206;29;20130;-68
2023/06/16 00:36:00;;;;;;;8.25;4.55;;;;;;;17.26;52.93;100446.03;4930485;28;20054;-69
2023/06/16 00:38:28;;;;;;;5.30;4.05;;;;;;;17.32;53.03;100453.59;4935874;28;20070;-70
2023/06/16 00:40:55;;;;;;;5.13;3.80;;;;;;;17.34;53.01;100454.34;4947349;28;20053;-70
2023/06/16 00:43:22;;;;;;;6.22;4.30;;;;;;;17.25;53.35;100452.34;4928813;29;20055;-69
2023/06/16 00:45:51;;;;;;;6.22;4.55;;;;;;;17.22;53.71;100456.09;4950925;28;20055;-69
2023/06/16 00:48:18;;;;;;;4.70;4.20;;;;;;;17.19;53.93;100459.84;4955699;28;20047;-69
2023/06/16 00:50:46;;;;;;;7.65;4.00;;;;;;;17.14;54.32;100451.34;4942524;28;20171;-70
2023/06/16 00:53:13;;;;;;;6.32;4.00;;;;;;;17.09;54.65;100450.81;4950670;28;20473;-69
2023/06/16 00:55:40;;;;;;;5.82;3.90;;;;;;;17.14;54.41;100459.34;4949518;28;20521;-70
2023/06/16 00:58:15;;;;;;;5.90;4.10;;;;;;;17.10;54.66;100457.88;4936504;29;20055;-69
2023/06/16 01:00:46;;;;;;;5.15;4.25;;;;;;;17.04;54.57;100442.25;4920281;29;20751;-69
2023/06/16 01:03:13;;;;;;;6.28;4.25;;;;;;;16.99;54.64;100449.78;4933789;29;20055;-68
2023/06/16 01:05:41;;;;;;;6.35;4.22;;;;;;;16.94;55.48;100446.56;4957134;28;20062;-70
2023/06/16 01:08:16;;;;;;;5.95;4.00;;;;;;;16.95;55.47;100447.44;4953240;28;20054;-70
2023/06/16 01:11:00;;;;;;;7.97;3.85;;;;;;;16.88;55.76;100444.31;4949805;28;20043;-69
2023/06/16 01:13:44;;;;;;;8.50;4.22;;;;;;;16.88;55.76;100441.66;4952274;28;20125;-69
2023/06/16 01:16:13;;;;;;;4.43;3.75;;;;;;;16.89;55.57;100448.72;4936450;29;20553;-69
2023/06/16 01:18:43;;;;;;;10.15;4.22;;;;;;;16.89;55.34;100450.53;4954225;28;20095;-69
2023/06/16 01:21:51;;;;;;;6.30;4.03;;;;;;;16.86;55.50;100446.25;4927424;29;20047;-69
2023/06/16 01:24:23;;;;;;;6.13;4.45;;;;;;;16.86;55.45;100443.56;4840348;29;20520;-69
2023/06/16 01:26:53;;;;;;;4.93;4.25;;;;;;;16.82;55.11;100442.97;4857162;29;20069;-69
2023/06/16 01:29:22;;;;;;;4.53;4.00;;;;;;;16.84;55.23;100446.34;4896971;29;20731;-69
2023/06/16 01:31:53;;;;;;;10.35;4.40;;;;;;;16.79;55.39;100448.53;4923872;29;20118;-69
2023/06/16 01:34:21;;;;;;;4.75;4.00;;;;;;;16.81;55.52;100445.75;4950584;28;20142;-69
2023/06/16 01:36:48;;;;;;;6.25;4.35;;;;;;;16.85;55.91;100441.88;4944942;28;20440;-69
2023/06/16 01:39:17;;;;;;;6.65;4.22;;;;;;;16.87;55.74;100444.44;4954161;28;20138;-69
2023/06/16 01:41:45;;;;;;;8.57;4.22;;;;;;;16.86;55.81;100434.69;4934163;29;20053;-69
2023/06/16 01:44:12;;;;;;;8.45;4.55;;;;;;;16.84;55.82;100435.66;4938986;29;20069;-71
2023/06/16 01:46:41;;;;;;;5.40;4.15;;;;;;;16.80;55.74;100433.34;4938993;29;20078;-71
2023/06/16 01:49:08;;;;;;;7.55;4.03;;;;;;;16.74;55.93;100437.28;4951251;28;20051;-69
2023/06/16 01:51:37;;;;;;;4.50;3.97;;;;;;;16.71;56.01;100436.66;4943917;28;20047;-70
2023/06/16 01:54:04;;;;;;;6.22;4.20;;;;;;;16.65;56.17;100437.13;4954632;28;20051;-69
2023/06/16 01:56:31;;;;;;;9.55;4.45;;;;;;;16.64;55.92;100436.25;4924331;29;20524;-69
2023/06/16 01:58:59;;;;;;;7.07;4.28;;;;;;;16.64;56.19;100427.38;4948922;28;20154;-69
2023/06/16 02:01:27;;;;;;;6.60;4.50;;;;;;;16.57;56.48;100431.41;4927483;28;20118;-70
2023/06/16 02:04:11;;;;;;;7.63;4.20;;;;;;;16.57;56.32;100434.94;4937512;29;20053;-69
2023/06/16 02:06:54;;;;;;;7.53;4.45;;;;;;;16.50;56.46;100425.66;4932520;28;20051;-69
2023/06/16 02:09:25;;;;;;;5.68;4.28;;;;;;;16.53;56.76;100436.13;4935458;29;20047;-69
2023/06/16 02:11:54;;;;;;;9.27;4.30;;;;;;;16.56;56.68;100440.41;4930611;28;20043;-69
2023/06/16 02:14:21;;;;;;;8.35;4.57;;;;;;;16.52;56.84;100438.94;4935133;29;20070;-69
2023/06/16 02:16:51;;;;;;;6.40;4.00;;;;;;;16.49;57.16;100438.16;4933869;29;20600;-69
2023/06/16 02:19:17;;;;;;;5.45;4.25;;;;;;;16.53;56.86;100438.78;4936884;29;20043;-69
2023/06/16 02:21:44;;;;;;;8.88;4.65;;;;;;;16.46;57.12;100432.19;4930956;29;20505;-69
2023/06/16 02:24:11;;;;;;;5.28;3.90;;;;;;;16.45;57.24;100438.50;4951819;28;20083;-69
2023/06/16 02:26:39;;;;;;;8.80;4.68;;;;;;;16.43;57.29;100433.25;4936640;28;20043;-70
2023/06/16 02:29:05;;;;;;;6.22;4.50;;;;;;;16.46;57.67;100445.53;4950683;28;20047;-69
2023/06/16 02:31:32;;;;;;;6.28;4.28;;;;;;;16.39;58.13;100434.41;4930931;29;20395;-69
2023/06/16 02:33:59;;;;;;;7.28;4.35;;;;;;;16.45;58.50;100444.69;4933677;29;20051;-69
2023/06/16 02:36:29;;;;;;;6.18;4.38;;;;;;;16.45;58.66;100447.38;4935787;29;20047;-69
2023/06/16 02:38:55;;;;;;;6.82;4.45;;;;;;;16.38;58.34;100438.06;4920654;29;20066;-70
2023/06/16 02:41:22;;;;;;;8.02;4.32;;;;;;;16.37;58.06;100447.03;4928622;28;20057;-69
2023/06/16 02:43:49;;;;;;;5.90;3.92;;;;;;;16.33;58.33;100442.88;4933724;29;20051;-70
2023/06/16 02:46:15;;;;;;;6.15;4.10;;;;;;;16.34;58.29;100451.75;4935006;29;20509;-69
2023/06/16 02:48:42;;;;;;;6.88;4.40;;;;;;;16.28;58.50;100436.16;4953001;28;20074;-69
2023/06/16 02:51:09;;;;;;;6.43;4.18;;;;;;;16.26;58.21;100446.94;4947062;28;20039;-69
2023/06/16 02:53:36;;;;;;;6.97;4.50;;;;;;;16.23;58.96;100436.44;4933734;28;20073;-70
2023/06/16 02:56:07;;;;;;;7.43;4.75;;;;;;;16.31;58.56;100441.28;4917826;29;20422;-70
2023/06/16 02:58:34;;;;;;;12.98;5.18;;;;;;;16.36;57.81;100458.72;4953153;28;20510;-70
2023/06/16 03:01:01;;;;;;;7.18;4.43;;;;;;;16.33;57.63;100444.69;4926932;29;20074;-70
2023/06/16 03:03:30;;;;;;;6.85;4.10;;;;;;;16.35;57.48;100454.31;4934647;29;20043;-69
2023/06/16 03:06:01;;;;;;;6.50;4.30;;;;;;;16.34;57.64;100441.94;4955426;28;20051;-70
2023/06/16 03:08:27;;;;;;;6.43;4.65;;;;;;;16.36;57.38;100440.00;4933403;29;20055;-69
2023/06/16 03:10:54;;;;;;;6.15;4.10;;;;;;;16.34;57.25;100433.91;4930999;28;20075;-68
2023/06/16 03:13:27;;;;;;;8.50;4.70;;;;;;;16.37;57.43;100439.00;4949464;28;20047;-70
2023/06/16 03:15:57;;;;;;;9.75;4.78;;;;;;;16.33;57.94;100442.88;4912845;29;20051;-70
2023/06/16 03:18:24;;;;;;;6.38;4.40;;;;;;;16.36;57.84;100450.69;4951988;28;20073;-69
2023/06/16 03:20:51;;;;;;;4.85;4.30;;;;;;;16.35;57.56;100432.94;4930224;28;20047;-69
2023/06/16 03:23:18;;;;;;;6.55;4.40;;;;;;;16.33;57.90;100440.22;4931220;29;20047;-69
2023/06/16 03:25:47;;;;;;;5.75;4.15;;;;;;;16.40;57.67;100445.97;4934151;28;20046;-70
2023/06/16 03:28:15;;;;;;;7.00;3.97;;;;;;;16.42;57.10;100441.38;4933765;29;20057;-69
2023/06/16 03:30:44;;;;;;;6.70;4.40;;;;;;;16.47;57.44;100444.59;4948021;28;20471;-70
2023/06/16 03:33:11;;;;;;;8.27;4.65;;;;;;;16.48;57.17;100444.47;4930497;28;20096;-69
2023/06/16 03:35:39;;;;;;;9.48;4.50;;;;;;;16.48;56.97;100441.81;4934263;29;20131;-69
2023/06/16 03:38:06;;;;;;;7.75;4.85;;;;;;;16.54;57.18;100450.34;4950810;28;20065;-69
2023/06/16 03:40:34;;;;;;;6.43;4.53;;;;;;;16.51;57.26;100448.75;4947533;28;20086;-69
2023/06/16 03:43:02;;;;;;;6.30;4.10;;;;;;;16.48;57.19;100443.63;4930438;28;20062;-69
2023/06/16 03:45:30;;;;;;;5.50;3.92;;;;;;;16.52;57.53;100449.63;4933970;29;20043;-70
2023/06/16 03:47:57;;;;;;;6.15;4.53;;;;;;;16.49;57.83;100445.34;4951314;28;20047;-70
2023/06/16 03:50:23;;;;;;;8.88;4.72;;;;;;;16.49;58.58;100451.53;4935590;29;20047;-70
2023/06/16 03:52:51;;;;;;;6.35;4.50;;;;;;;16.51;58.52;100455.91;4929227;29;20046;-70
2023/06/16 03:55:37;;;;;;;10.20;4.70;;;;;;;16.46;58.90;100453.56;4938814;29;20506;-70
2023/06/16 03:58:07;;;;;;;5.70;4.03;;;;;;;16.55;59.19;100458.25;4950199;28;20054;-69
2023/06/16 04:00:34;;;;;;;6.53;4.50;;;;;;;16.58;59.44;100460.72;4949871;29;20075;-70
2023/06/16 04:03:02;;;;;;;6.63;4.40;;;;;;;16.53;59.48;100448.66;4926250;28;20071;-70
2023/06/16 04:05:31;;;;;;;7.45;4.78;;;;;;;16.60;58.67;100449.91;4951301;28;20482;-69
2023/06/16 04:07:57;;;;;;;8.00;4.40;;;;;;;16.68;59.22;100467.16;4935769;29;20043;-70
2023/06/16 04:10:24;;;;;;;6.35;4.38;;;;;;;16.77;58.98;100471.84;4949637;28;20134;-69
2023/06/16 04:12:52;;;;;;;8.05;4.90;;;;;;;16.83;59.38;100470.56;4934639;29;20072;-69
2023/06/16 04:15:19;;;;;;;8.45;5.00;;;;;;;16.86;59.38;100472.13;4954319;28;20129;-70
2023/06/16 04:17:45;;;;;;;9.32;4.75;;;;;;;16.92;59.17;100467.22;4958646;28;20050;-70
2023/06/16 04:20:13;;;;;;;7.75;4.60;;;;;;;17.04;59.81;100463.66;4936799;28;20051;-70
2023/06/16 04:22:40;;;;;;;4.82;4.03;;;;;;;17.06;58.11;100455.50;4949784;28;20043;-70
2023/06/16 04:25:09;;;;;;;7.60;4.20;;;;;;;17.10;58.19;100460.53;4955473;28;20039;-70
2023/06/16 04:27:37;;;;;;;7.78;4.30;;;;;;;17.19;58.16;100470.56;4955993;28;20043;-70
2023/06/16 04:30:06;;;;;;;7.40;4.50;;;;;;;17.15;58.64;100465.56;4938028;29;20043;-70
2023/06/16 04:32:36;;;;;;;9.77;5.07;;;;;;;17.14;58.98;100471.88;4935450;29;20801;-70
2023/06/16 04:35:04;;;;;;;9.90;5.05;;;;;;;17.12;59.38;100479.16;4957104;28;20479;-69
2023/06/16 04:37:33;;;;;;;;;;;;;;;17.08;60.28;100478.53;4957858;28;20054;-70
2023/06/16 04:40:00;;;;;;;6.03;4.45;;;;;;;17.01;61.79;100468.34;4940376;29;19922;-70
2023/06/16 04:42:30;;;;;;;6.88;4.55;;;;;;;17.04;61.98;100460.13;4947696;28;20054;-70
2023/06/16 04:44:57;;;;;;;8.43;4.85;;;;;;;17.03;62.20;100469.09;4954096;28;20070;-70
2023/06/16 04:47:24;;;;;;;9.10;4.70;;;;;;;16.89;63.05;100466.56;4952982;28;20047;-69
2023/06/16 04:49:51;;;;;;;6.00;4.55;;;;;;;16.90;63.91;100458.44;4937556;29;20120;-71
2023/06/16 04:52:19;;;;;;;6.72;4.72;;;;;;;16.99;63.06;100470.31;4949657;28;20062;-69
2023/06/16 04:54:46;;;;;;;8.90;4.60;;;;;;;17.09;62.96;100468.69;4959178;28;20042;-69
2023/06/16 04:57:13;;;;;;;8.80;4.65;;;;;;;17.11;62.34;100464.94;4925579;29;20081;-69
2023/06/16 04:59:40;;;;;;;5.95;4.18;;;;;;;17.13;61.93;100463.00;4940848;29;20051;-69
2023/06/16 05:02:07;;;;;;;7.72;4.20;;;;;;;17.25;62.66;100471.09;4954703;28;20047;-69
2023/06/16 05:04:34;;;;;;;6.38;4.57;;;;;;;17.29;62.79;100472.56;4956588;29;20043;-69
2023/06/16 05:07:01;;;;;;;8.18;4.32;;;;;;;17.30;59.60;100474.28;4940445;29;20116;-69
2023/06/16 05:09:28;;;;;;;4.60;3.72;;;;;;;17.38;60.46;100477.25;4941509;29;20046;-69
2023/06/16 05:11:58;;;;;;;6.22;4.72;;;;;;;17.44;61.75;100468.75;4949123;28;20050;-69
2023/06/16 05:14:25;;;;;;;5.35;4.18;;;;;;;17.49;62.73;100463.91;4936677;28;20051;-69
2023/06/16 05:16:52;;;;;;;8.52;4.70;;;;;;;17.54;63.37;100467.09;4939667;28;20050;-69
2023/06/16 05:19:19;;;;;;;6.72;4.90;;;;;;;17.56;63.09;100465.16;4953525;28;20043;-69
2023/06/16 05:21:46;;;;;;;8.07;4.75;;;;;;;17.62;63.21;100464.72;4950502;28;20062;-70
2023/06/16 05:24:13;;;;;;;7.55;4.50;;;;;;;17.63;63.13;100460.22;4953420;28;20043;-69
2023/06/16 05:26:40;;;;;;;5.28;4.07;;;;;;;17.68;64.04;100461.59;4958475;28;20066;-70
2023/06/16 05:29:08;;;;;;;7.20;4.28;;;;;;;17.74;64.11;100460.28;4940371;29;20078;-69
2023/06/16 05:31:37;;;;;;;5.70;4.13;;;;;;;17.87;63.67;100463.75;4935755;29;20055;-70
2023/06/16 05:34:04;;;;;;;8.50;4.68;;;;;;;17.95;60.73;100461.31;4954749;28;20051;-70
2023/06/16 05:36:34;;;;;;;7.95;4.78;;;;;;;18.05;60.22;100467.69;4958619;28;20039;-69
2023/06/16 05:39:03;;;;;;;5.75;4.35;;;;;;;18.18;59.87;100467.59;4955970;28;20106;-69
2023/06/16 05:41:30;;;;;;;5.80;3.85;;;;;;;18.26;59.47;100470.53;4951906;28;20584;-70
2023/06/16 05:43:57;;;;;;;8.60;4.40;;;;;;;18.35;61.00;100475.19;4939413;29;20039;-69
2023/06/16 05:46:25;;;;;;;8.02;4.45;;;;;;;18.48;58.12;100480.44;4939366;29;20039;-69
2023/06/16 05:48:51;;;;;;;6.60;4.25;;;;;;;18.58;55.83;100470.69;4945745;29;20043;-69
2023/06/16 05:51:18;;;;;;;6.82;3.97;;;;;;;18.75;56.54;100480.13;4936693;29;20066;-69
2023/06/16 05:53:45;;;;;;;5.32;3.45;;;;;;;18.88;56.24;100475.50;4935412;29;20059;-69
2023/06/16 05:56:11;;;;;;;9.60;3.80;;;;;;;18.97;54.24;100484.63;4957476;28;20050;-71
2023/06/16 05:58:38;;;;;;;6.20;4.18;;;;;;;19.08;53.24;100479.25;4956722;28;20047;-69
2023/06/16 06:01:06;;;;;;;6.28;3.60;;;;;;;19.17;52.64;100486.56;4939851;29;20078;-70
2023/06/16 06:03:33;;;;;;;7.72;3.97;;;;;;;19.27;52.83;100480.31;4934088;28;20063;-69
2023/06/16 06:06:01;;;;;;;10.10;3.97;;;;;;;19.38;53.41;100478.56;4955309;28;20059;-69
2023/06/16 06:08:30;;;;;;;8.43;4.43;;;;;;;19.51;52.50;100474.78;4957209;28;20047;-70
2023/06/16 06:11:01;;;;;;;5.05;4.20;;;;;;;19.72;52.33;100485.56;4936308;29;20047;-70
2023/06/16 06:13:28;;;;;;;;;;;;;;;19.98;51.95;100490.59;4933776;29;20118;-69
2023/06/16 06:15:54;;;;;;;5.72;3.88;;;;;;;20.20;50.92;100472.50;4954343;28;19982;-69
2023/06/16 06:18:24;;;;;;;6.53;3.83;;;;;;;20.66;49.80;100480.16;4957236;28;20478;-69
2023/06/16 06:20:50;;;;;;;8.05;4.18;;;;;;;21.10;48.94;100490.66;4941050;29;20548;-69
2023/06/16 06:23:18;;;;;;;5.85;3.97;;;;;;;21.64;47.36;100491.09;4930247;29;20098;-69
2023/06/16 06:25:46;;;;;;;5.90;4.15;;;;;;;22.13;46.52;100499.22;4937032;29;20138;-71
2023/06/16 06:28:12;;;;;;;6.20;4.30;;;;;;;22.55;45.68;100503.25;4938163;29;20047;-69
2023/06/16 06:30:39;;;;;;;7.25;3.90;;;;;;;22.90;44.17;100501.75;4951505;28;20082;-70
2023/06/16 06:33:06;;;;;;;7.47;3.80;;;;;;;23.18;44.47;100511.56;4944007;29;20051;-71
2023/06/16 06:35:33;;;;;;;9.15;4.10;;;;;;;23.55;43.77;100510.69;4940106;29;20039;-70
2023/06/16 06:37:59;;;;;;;7.78;4.00;;;;;;;23.90;42.98;100497.19;4951735;28;20118;-70
2023/06/16 06:40:27;;;;;;;7.15;3.80;;;;;;;24.13;41.91;100513.75;4947381;28;20043;-70
2023/06/16 06:42:55;;;;;;;4.90;3.60;;;;;;;24.39;40.96;100500.31;4921682;29;20110;-72
2023/06/16 06:45:22;;;;;;;5.93;3.80;;;;;;;24.66;40.74;100507.44;4947604;28;20043;-70
2023/06/16 06:47:49;;;;;;;6.38;3.78;;;;;;;24.72;38.26;100502.19;4934125;29;20071;-71
2023/06/16 06:50:16;;;;;;;5.95;3.85;;;;;;;24.82;39.38;100516.50;4935932;29;20641;-71
2023/06/16 06:52:43;;;;;;;6.72;3.65;;;;;;;24.82;38.74;100521.91;4950659;28;20055;-70
2023/06/16 06:55:10;;;;;;;6.72;3.50;;;;;;;24.81;38.34;100522.06;4934464;28;20145;-70
2023/06/16 06:57:40;;;;;;;4.95;3.70;;;;;;;24.91;39.96;100521.94;4934998;29;20054;-70
2023/06/16 07:00:07;;;;;;;8.68;3.80;;;;;;;25.16;39.10;100524.66;4952370;28;20047;-70
2023/06/16 07:02:35;;;;;;;4.60;3.70;;;;;;;25.47;38.62;100516.81;4949256;28;21023;-71
2023/06/16 07:05:02;;;;;;;5.10;3.83;;;;;;;25.75;38.35;100519.28;4948593;28;20090;-70
2023/06/16 07:07:29;;;;;;;5.20;3.60;;;;;;;25.96;37.35;100505.25;4932855;29;20051;-70
2023/06/16 07:09:56;;;;;;;9.20;3.95;;;;;;;26.00;38.33;100512.84;4951963;28;20077;-70
2023/06/16 07:12:23;;;;;;;7.50;3.63;;;;;;;26.10;39.02;100529.00;4951374;28;20126;-69
2023/06/16 07:14:49;;;;;;;5.15;3.63;;;;;;;25.86;39.20;100521.66;4947340;28;20047;-69
2023/06/16 07:17:16;;;;;;;6.97;3.53;;;;;;;25.64;38.25;100528.59;4952372;28;20050;-68
2023/06/16 07:19:42;;;;;;;6.93;4.07;;;;;;;25.58;37.96;100522.94;4935013;29;20130;-70
2023/06/16 07:22:09;;;;;;;5.45;3.83;;;;;;;25.65;39.58;100526.72;4950320;28;20659;-70
2023/06/16 07:24:36;;;;;;;6.00;3.92;;;;;;;25.52;39.18;100519.00;4932823;29;20066;-70
2023/06/16 07:27:03;;;;;;;5.63;4.10;;;;;;;25.65;37.74;100529.44;4935992;29;20506;-69
2023/06/16 07:29:30;;;;;;;5.78;3.75;;;;;;;25.19;39.18;100534.31;4952064;28;20107;-70
2023/06/16 07:31:57;;;;;;;5.25;3.80;;;;;;;25.42;38.14;100542.72;4950031;28;20070;-70
2023/06/16 07:34:24;;;;;;;5.82;3.72;;;;;;;25.39;37.77;100534.91;4924572;29;20538;-70
2023/06/16 07:36:50;;;;;;;5.05;3.67;;;;;;;25.34;37.80;100542.69;4934911;29;20542;-70
2023/06/16 07:39:17;;;;;;;6.68;3.85;;;;;;;25.63;38.63;100536.88;4935699;28;20047;-69
2023/06/16 07:41:44;;;;;;;4.70;3.47;;;;;;;25.82;38.46;100531.97;4949735;28;20043;-69
2023/06/16 07:44:11;;;;;;;9.98;3.70;;;;;;;26.12;38.51;100530.53;4942987;28;20062;-70
2023/06/16 07:46:39;;;;;;;7.90;3.72;;;;;;;26.43;38.28;100533.44;4948036;28;20049;-68
2023/06/16 07:49:06;;;;;;;4.47;3.83;;;;;;;26.54;37.23;100537.66;4952339;28;20062;-69
2023/06/16 07:51:32;;;;;;;6.07;3.50;;;;;;;26.65;36.23;100540.00;4927683;29;20047;-70
2023/06/16 07:53:59;;;;;;;4.22;3.72;;;;;;;26.76;35.00;100545.06;4926462;28;20077;-70
2023/06/16 07:56:26;;;;;;;4.57;3.55;;;;;;;26.67;35.74;100540.69;4934701;29;20072;-69
2023/06/16 07:58:53;;;;;;;7.03;4.00;;;;;;;26.69;36.66;100533.22;4950858;28;20059;-68
2023/06/16 08:01:19;;;;;;;4.88;3.45;;;;;;;26.87;35.24;100533.84;4939067;29;20055;-70
2023/06/16 08:03:48;;;;;;;5.70;3.63;;;;;;;26.86;37.15;100532.16;4925690;29;20044;-69
2023/06/16 08:06:16;;;;;;;9.00;4.07;;;;;;;26.47;37.18;100518.47;4956169;28;20071;-69
2023/06/16 08:08:43;;;;;;;5.22;3.88;;;;;;;26.24;37.96;100535.59;4941469;29;20043;-69
2023/06/16 08:11:10;;;;;;;8.77;4.00;;;;;;;26.04;38.46;100519.66;4950921;28;20136;-69
2023/06/16 08:13:37;;;;;;;3.80;3.40;;;;;;;25.91;38.61;100527.44;4943932;29;20051;-69
2023/06/16 08:16:05;;;;;;;7.10;3.88;;;;;;;25.95;36.23;100526.09;4933476;29;20051;-69
2023/06/16 08:18:32;;;;;;;6.35;3.42;;;;;;;25.95;37.43;100514.38;4935940;28;20111;-69
2023/06/16 08:20:59;;;;;;;5.50;3.67;;;;;;;25.87;36.62;100520.63;4949936;28;20540;-70
2023/06/16 08:23:26;;;;;;;7.57;3.80;;;;;;;25.98;36.61;100512.16;4935082;28;20135;-72
2023/06/16 08:25:53;;;;;;;5.82;3.88;;;;;;;25.93;36.20;100522.69;4947002;28;20120;-69
2023/06/16 08:28:20;;;;;;;6.38;3.55;;;;;;;25.99;36.34;100513.88;4951386;28;20103;-70
2023/06/16 08:30:46;;;;;;;4.65;3.88;;;;;;;26.03;36.52;100511.66;4947022;28;20047;-70
2023/06/16 08:33:13;;;;;;;4.45;3.60;;;;;;;25.95;37.00;100509.81;4931828;28;20162;-70
2023/06/16 08:35:42;;;;;;;6.53;3.80;;;;;;;26.02;37.30;100509.97;4951825;28;20047;-69
2023/06/16 08:38:08;;;;;;;6.15;4.15;;;;;;;25.92;37.25;100501.16;4938818;28;20442;-70
2023/06/16 08:40:35;;;;;;;6.07;4.15;;;;;;;25.99;38.42;100507.59;4952835;28;20370;-70
2023/06/16 08:43:06;;;;;;;6.22;4.05;;;;;;;26.09;36.93;100511.84;4927500;29;20175;-71
2023/06/16 08:45:35;;;;;;;7.80;3.50;;;;;;;25.89;37.34;100504.19;4944899;28;20066;-70
2023/06/16 08:48:04;;;;;;;5.35;3.65;;;;;;;25.78;38.15;100508.09;4935297;29;20047;-70
2023/06/16 08:50:32;;;;;;;6.85;4.00;;;;;;;26.01;37.94;100503.69;4951627;28;20098;-70
2023/06/16 08:53:00;;;;;;;7.50;4.13;;;;;;;26.29;36.98;100511.56;4927744;29;20043;-69
2023/06/16 08:55:29;;;;;;;4.55;3.55;;;;;;;26.23;37.07;100513.03;4927848;29;20051;-71
2023/06/16 08:57:58;;;;;;;9.85;3.75;;;;;;;26.34;36.30;100517.28;4953131;28;20438;-70
2023/06/16 09:00:30;;;;;;;5.80;3.92;;;;;;;26.39;36.17;100509.50;4936877;29;20553;-70
2023/06/16 09:02:59;;;;;;;4.45;3.70;;;;;;;26.26;37.02;100510.00;4959412;28;20079;-70
2023/06/16 09:05:26;;;;;;;5.85;4.00;;;;;;;26.29;36.40;100511.56;4957327;28;20035;-69
2023/06/16 09:07:54;;;;;;;5.03;3.83;;;;;;;26.36;37.19;100509.84;4951481;28;20095;-69
2023/06/16 09:10:21;;;;;;;5.53;4.00;;;;;;;26.33;35.72;100505.59;4953717;28;20047;-70
2023/06/16 09:12:53;;;;;;;5.88;3.80;;;;;;;26.13;36.88;100506.94;4938491;29;20115;-70
2023/06/16 09:15:21;;;;;;;4.72;4.20;;;;;;;25.84;37.23;100502.81;4947835;28;20047;-69
2023/06/16 09:17:48;;;;;;;4.38;3.83;;;;;;;25.81;36.61;100503.16;4937707;28;20043;-70
2023/06/16 09:20:17;;;;;;;5.10;4.18;;;;;;;25.85;37.08;100498.25;4934185;29;20043;-69
2023/06/16 09:22:50;;;;;;;8.43;3.90;;;;;;;25.75;38.02;100503.84;4951801;28;20043;-69
2023/06/16 09:25:20;;;;;;;5.93;4.22;;;;;;;25.65;38.72;100497.75;4948728;28;20095;-71
2023/06/16 09:27:50;;;;;;;4.47;3.88;;;;;;;25.68;38.05;100491.97;4950379;28;20054;-70
2023/06/16 09:30:20;;;;;;;5.55;3.88;;;;;;;25.71;37.05;100498.91;4937178;29;20407;-70
2023/06/16 09:32:49;;;;;;;4.88;4.15;;;;;;;25.62;37.50;100494.50;4950149;28;20134;-69
2023/06/16 09:35:19;;;;;;;7.97;4.70;;;;;;;25.44;37.73;100489.19;4938121;28;20063;-71
2023/06/16 09:37:47;;;;;;;5.90;3.75;;;;;;;25.40;38.32;100494.06;4914335;29;20095;-69
2023/06/16 09:40:14;;;;;;;4.95;4.00;;;;;;;25.40;38.45;100483.22;4913726;29;20138;-70
2023/06/16 09:42:44;;;;;;;7.80;4.40;;;;;;;25.35;38.48;100493.72;4916801;29;20051;-70
2023/06/16 09:45:15;;;;;;;7.00;3.92;;;;;;;25.34;38.25;100489.28;4910409;29;20060;-69
2023/06/16 09:47:44;;;;;;;4.47;3.70;;;;;;;25.28;38.32;100481.84;4936764;29;20048;-69
2023/06/16 09:50:23;;;;;;;5.25;4.57;;;;;;;25.32;38.37;100480.50;4930704;29;20588;-70
2023/06/16 09:52:49;;;;;;;4.68;3.88;;;;;;;25.45;38.89;100485.44;4934302;29;20117;-70
2023/06/16 09:55:16;;;;;;;6.18;4.35;;;;;;;25.57;38.57;100477.84;4934430;29;20142;-70
2023/06/16 09:57:45;;;;;;;7.78;3.88;;;;;;;25.41;38.76;100471.38;4932627;29;20047;-70
2023/06/16 10:00:16;;;;;;;8.95;4.15;;;;;;;25.11;38.29;100470.09;4924942;29;20047;-71
2023/06/16 10:02:47;;;;;;;5.93;4.55;;;;;;;24.92;39.14;100470.31;4933409;28;20043;-69
2023/06/16 10:05:18;;;;;;;7.25;3.70;;;;;;;24.95;39.72;100461.06;4928296;28;20047;-69
2023/06/16 10:07:48;;;;;;;6.15;4.20;;;;;;;25.18;39.38;100464.88;4912276;29;20047;-69
2023/06/16 10:10:16;;;;;;;;;;;;;;;25.46;37.99;100473.59;4912724;29;20048;-71
2023/06/16 10:12:49;;;;;;;5.53;3.85;;;;;;;25.63;36.89;100467.22;4915462;29;19922;-71
2023/06/16 10:15:25;;;;;;;5.63;4.00;;;;;;;25.72;38.22;100449.09;4926953;29;20138;-70
2023/06/16 10:18:02;;;;;;;4.63;3.90;;;;;;;25.88;36.88;100462.66;4913293;29;20047;-70
2023/06/16 10:20:37;;;;;;;5.15;4.10;;;;;;;26.01;36.02;100464.84;4929014;29;20074;-70
2023/06/16 10:23:05;;;;;;;4.57;4.10;;;;;;;26.15;35.41;100459.59;4917772;29;20135;-70
2023/06/16 10:25:33;;;;;;;8.38;3.80;;;;;;;26.32;34.81;100465.03;4920762;29;20055;-70
2023/06/16 10:28:07;;;;;;;5.13;4.30;;;;;;;26.40;36.14;100459.59;4906643;29;20051;-69
2023/06/16 10:30:35;;;;;;;4.22;3.45;;;;;;;26.25;36.29;100456.72;4930067;29;21080;-71
2023/06/16 10:33:15;;;;;;;6.00;4.03;;;;;;;26.24;36.58;100455.00;4916047;29;20055;-72
2023/06/16 10:35:53;;;;;;;;;;;;;;;26.26;37.55;100460.28;4945830;28;20240;-69
2023/06/16 10:38:34;;;;;;;5.13;4.03;;;;;;;26.21;36.51;100450.78;4931864;28;19981;-69
2023/06/16 10:41:03;;;;;;;6.45;3.90;;;;;;;26.44;36.75;100450.94;4944959;28;20046;-66
2023/06/16 10:43:31;;;;;;;5.13;3.78;;;;;;;26.75;35.18;100447.47;4938831;28;20138;-67
2023/06/16 10:46:20;;;;;;;5.50;3.40;;;;;;;26.98;34.83;100444.84;4937874;28;20051;-66
2023/06/16 10:49:10;;;;;;;6.90;3.88;;;;;;;26.98;33.91;100455.72;4942405;28;20449;-65
2023/06/16 10:51:52;;;;;;;4.68;3.90;;;;;;;27.01;33.08;100448.06;4948168;28;20035;-67
2023/06/16 10:54:43;;;;;;;5.78;3.67;;;;;;;27.10;33.73;100441.56;4946280;28;20058;-66
2023/06/16 10:57:12;;;;;;;4.47;4.05;;;;;;;27.25;33.89;100442.47;4943006;28;20066;-67
2023/06/16 10:59:56;;;;;;;4.85;3.50;;;;;;;27.17;34.08;100450.69;4923399;28;20146;-68
2023/06/16 11:02:26;;;;;;;4.68;3.60;;;;;;;26.82;34.22;100443.84;4940843;28;20055;-67
2023/06/16 11:05:07;;;;;;;7.07;4.63;;;;;;;26.04;35.08;100440.09;4949760;28;20198;-69
2023/06/16 11:07:48;;;;;;;5.60;3.67;;;;;;;25.72;34.77;100446.38;4944209;28;20136;-68
2023/06/16 11:10:21;;;;;;;5.10;3.70;;;;;;;25.70;34.60;100445.69;4942166;28;20055;-65
2023/06/16 11:12:48;;;;;;;3.92;3.55;;;;;;;25.89;34.28;100431.78;4931364;28;20051;-68
2023/06/16 11:15:15;;;;;;;4.35;3.70;;;;;;;26.23;34.36;100436.19;4942557;28;21914;-69
2023/06/16 11:17:47;;;;;;;6.60;3.83;;;;;;;26.42;33.66;100422.28;4943846;28;20126;-69
2023/06/16 11:20:16;;;;;;;4.85;3.53;;;;;;;26.66;33.93;100427.63;4945340;28;20055;-69
2023/06/16 11:22:44;;;;;;;3.70;3.40;;;;;;;26.57;33.80;100417.81;4900129;29;20078;-69
2023/06/16 11:25:12;;;;;;;7.75;3.70;;;;;;;26.75;33.63;100434.72;4938331;28;20501;-68
2023/06/16 11:27:39;;;;;;;6.35;3.20;;;;;;;26.84;32.54;100433.66;4943232;28;20541;-68
2023/06/16 11:30:07;;;;;;;8.73;3.13;;;;;;;26.90;31.71;100432.13;4929494;28;20043;-68
2023/06/16 11:32:36;;;;;;;4.43;3.65;;;;;;;26.88;32.24;100429.59;4927299;28;20047;-68
2023/06/16 11:35:05;;;;;;;3.92;3.30;;;;;;;26.98;31.25;100417.66;4922204;28;20059;-67